Time;durP1;ratioP1;P1;durP2;ratioP2;P2;SDS_P1;SDS_P2;PMS_P1;PMS_P2;Temp;Humidity;BMP_temperature;BMP_pressure;BME280_temperature;BME280_humidity;BME280_pressure;Samples;Min_cycle;Max_cycle;Signal;HPM_P1;HPM_P2
2021/12/20 00:00:49;;;;;;;28.63;17.03;;;4.10;99.90;;;;;;4877853;29;20199;-77
2021/12/20 00:03:14;;;;;;;32.30;16.73;;;4.20;99.90;;;;;;4878578;29;20666;-77
2021/12/20 00:05:40;;;;;;;32.67;16.03;;;4.20;99.90;;;;;;4876955;29;20212;-78
2021/12/20 00:08:06;;;;;;;25.10;15.63;;;4.20;99.90;;;;;;4878519;29;20642;-78
2021/12/20 00:10:33;;;;;;;28.90;15.80;;;4.10;99.90;;;;;;4878350;29;20406;-77
2021/12/20 00:12:58;;;;;;;33.53;17.63;;;4.10;99.90;;;;;;4878423;29;20528;-77
2021/12/20 00:15:25;;;;;;;31.50;17.73;;;4.10;99.90;;;;;;4878541;29;20444;-78
2021/12/20 00:17:50;;;;;;;29.37;18.23;;;4.10;99.90;;;;;;4878269;29;20184;-77
2021/12/20 00:20:17;;;;;;;34.03;17.93;;;4.10;99.90;;;;;;4877282;29;20391;-77
2021/12/20 00:22:43;;;;;;;30.43;15.80;;;4.10;99.90;;;;;;4877909;29;20890;-78
2021/12/20 00:25:09;;;;;;;28.50;16.50;;;4.10;99.90;;;;;;4878057;29;20423;-77
2021/12/20 00:27:35;;;;;;;28.20;16.30;;;4.10;99.90;;;;;;4877927;29;20443;-77
2021/12/20 00:30:01;;;;;;;33.33;18.00;;;4.10;99.90;;;;;;4878279;29;20554;-77
2021/12/20 00:32:27;;;;;;;30.57;18.30;;;4.20;99.90;;;;;;4876409;29;20493;-78
2021/12/20 00:34:52;;;;;;;33.97;16.73;;;4.10;99.90;;;;;;4876591;29;20424;-78
2021/12/20 00:40:22;;;;;;;28.13;15.73;;;4.20;99.90;;;;;;4877996;29;20626;-77
2021/12/20 00:42:59;;;;;;;31.70;18.50;;;4.10;99.90;;;;;;4877456;29;20532;-76
2021/12/20 00:45:33;;;;;;;33.23;17.93;;;4.10;99.90;;;;;;4877844;29;20511;-77
2021/12/20 00:47:59;;;;;;;36.63;16.60;;;4.10;99.90;;;;;;4877962;29;20427;-77
2021/12/20 00:50:26;;;;;;;31.80;16.50;;;4.10;99.90;;;;;;4878857;29;20931;-77
2021/12/20 00:52:53;;;;;;;35.63;19.10;;;4.10;99.90;;;;;;4881347;29;20924;-77
2021/12/20 00:55:21;;;;;;;28.33;16.63;;;4.10;99.90;;;;;;4881817;29;20482;-78
2021/12/20 00:57:49;;;;;;;30.73;17.47;;;4.10;99.90;;;;;;4881477;29;20439;-78
2021/12/20 05:31:25;;;;;;;33.63;16.90;;;3.60;99.90;;;;;;5579099;23;20488;-73
2021/12/20 05:33:50;;;;;;;37.90;17.43;;;3.60;99.90;;;;;;4893965;29;20763;-76
2021/12/20 05:36:16;;;;;;;31.27;16.17;;;3.60;99.90;;;;;;4896604;29;20721;-76
2021/12/20 05:38:41;;;;;;;32.57;15.17;;;3.60;99.90;;;;;;4901282;29;20592;-76
2021/12/20 05:41:07;;;;;;;31.03;16.10;;;3.60;99.90;;;;;;4900479;29;20306;-76
2021/12/20 05:43:32;;;;;;;30.90;15.50;;;3.60;99.90;;;;;;4898961;29;20219;-76
2021/12/20 05:45:58;;;;;;;34.97;16.70;;;3.50;99.90;;;;;;4890825;29;20231;-77
2021/12/20 05:48:23;;;;;;;29.90;15.43;;;3.50;99.90;;;;;;4898576;29;20908;-76
2021/12/20 05:50:49;;;;;;;32.73;16.50;;;3.50;99.90;;;;;;4909617;29;20195;-76
2021/12/20 05:53:15;;;;;;;33.37;17.07;;;3.50;99.90;;;;;;4911134;29;20191;-76
2021/12/20 05:55:40;;;;;;;30.00;15.07;;;3.50;99.90;;;;;;4906779;29;20197;-76
2021/12/20 05:58:06;;;;;;;31.80;16.53;;;3.50;99.90;;;;;;4906750;29;20178;-76
2021/12/20 06:00:31;;;;;;;33.73;16.43;;;3.50;99.90;;;;;;4906396;29;20218;-75
2021/12/20 06:02:57;;;;;;;32.27;15.67;;;3.50;99.90;;;;;;4910215;29;20187;-76
2021/12/20 06:05:22;;;;;;;31.30;17.67;;;3.50;99.90;;;;;;4917795;29;20637;-76
2021/12/20 06:07:48;;;;;;;38.63;17.43;;;3.60;99.90;;;;;;4917725;29;20263;-76
2021/12/20 06:10:16;;;;;;;34.43;16.93;;;3.60;99.90;;;;;;4917253;29;20180;-76
2021/12/20 06:12:42;;;;;;;33.20;16.00;;;3.60;99.90;;;;;;4916793;29;20257;-76
2021/12/20 06:15:09;;;;;;;32.07;16.47;;;3.60;99.90;;;;;;4917473;29;20415;-76
2021/12/20 06:17:35;;;;;;;35.53;16.00;;;3.60;99.90;;;;;;4917642;29;20846;-77
2021/12/20 06:20:03;;;;;;;33.30;16.27;;;3.50;99.90;;;;;;4917428;29;20424;-76
2021/12/20 06:22:29;;;;;;;29.83;15.00;;;3.50;99.90;;;;;;4917294;29;20453;-76
2021/12/20 06:24:54;;;;;;;30.37;15.63;;;3.50;99.90;;;;;;4917332;29;20423;-76
2021/12/20 06:27:19;;;;;;;28.40;13.43;;;3.40;99.90;;;;;;4917288;29;20216;-76
2021/12/20 06:29:45;;;;;;;29.40;14.60;;;3.40;99.90;;;;;;4915183;29;20182;-76
2021/12/20 06:32:10;;;;;;;33.43;14.47;;;3.40;99.90;;;;;;4915504;29;20223;-76
2021/12/20 06:34:36;;;;;;;32.67;14.73;;;3.40;99.90;;;;;;4917163;29;20184;-76
2021/12/20 06:37:03;;;;;;;29.67;14.90;;;3.50;99.90;;;;;;4917202;29;20261;-76
2021/12/20 06:39:30;;;;;;;32.47;15.80;;;3.40;99.90;;;;;;4917151;29;20831;-76
2021/12/20 06:41:56;;;;;;;29.53;15.13;;;3.40;99.90;;;;;;4916976;29;20470;-77
2021/12/20 06:44:22;;;;;;;30.63;15.27;;;3.40;99.90;;;;;;4916914;29;20872;-76
2021/12/20 06:46:47;;;;;;;33.93;14.40;;;3.40;99.90;;;;;;4915838;29;20639;-76
2021/12/20 06:49:13;;;;;;;41.70;16.47;;;3.40;99.90;;;;;;4915887;29;20178;-76
2021/12/20 06:51:42;;;;;;;33.07;15.60;;;3.40;99.90;;;;;;4916776;29;20227;-76
2021/12/20 06:54:09;;;;;;;31.87;15.27;;;3.40;99.90;;;;;;4916770;29;20180;-76
2021/12/20 06:56:34;;;;;;;30.93;14.90;;;3.40;99.90;;;;;;4916896;29;20435;-76
2021/12/20 06:59:00;;;;;;;36.77;17.60;;;3.50;99.90;;;;;;4917163;29;20398;-76
2021/12/20 07:01:26;;;;;;;37.97;16.87;;;3.40;99.90;;;;;;4916341;29;20212;-76
2021/12/20 07:03:51;;;;;;;30.97;15.93;;;3.40;99.90;;;;;;4916585;29;20194;-76
2021/12/20 07:06:17;;;;;;;35.83;16.17;;;3.40;99.90;;;;;;4916454;29;20216;-76
2021/12/20 07:08:43;;;;;;;34.47;14.83;;;3.30;99.90;;;;;;4916696;29;20175;-76
2021/12/20 07:11:09;;;;;;;33.30;16.00;;;3.30;99.90;;;;;;4916270;29;20203;-72
2021/12/20 07:13:34;;;;;;;32.03;15.87;;;3.40;99.90;;;;;;4916464;29;20190;-72
2021/12/20 07:16:00;;;;;;;30.30;16.03;;;3.50;99.90;;;;;;4916443;29;20621;-74
2021/12/20 07:18:25;;;;;;;32.93;14.80;;;3.50;99.90;;;;;;4916290;29;20187;-72
2021/12/20 07:20:51;;;;;;;35.27;16.03;;;3.60;99.90;;;;;;4916542;29;20211;-75
2021/12/20 07:23:17;;;;;;;26.03;15.10;;;3.70;99.90;;;;;;4916136;29;20207;-74
2021/12/20 07:25:42;;;;;;;28.03;13.40;;;3.70;99.90;;;;;;4916404;29;20184;-73
2021/12/20 07:28:08;;;;;;;30.30;14.67;;;3.70;99.90;;;;;;4916716;29;20184;-74
2021/12/20 07:30:35;;;;;;;31.60;14.63;;;3.70;99.90;;;;;;4916047;29;20185;-75
2021/12/20 07:33:01;;;;;;;35.57;15.57;;;3.70;99.90;;;;;;4915797;29;20174;-74
2021/12/20 07:35:27;;;;;;;26.50;14.33;;;3.70;99.90;;;;;;4915976;29;20811;-74
2021/12/20 07:37:56;;;;;;;26.40;14.70;;;3.70;99.90;;;;;;4914815;29;20266;-74
2021/12/20 07:40:23;;;;;;;32.57;14.73;;;3.70;99.90;;;;;;4915760;29;20415;-73
2021/12/20 07:42:48;;;;;;;36.07;16.73;;;3.70;99.90;;;;;;4915553;29;20491;-74
2021/12/20 07:45:14;;;;;;;35.73;16.63;;;3.80;99.90;;;;;;4915861;29;20428;-72
2021/12/20 07:47:40;;;;;;;32.17;14.73;;;3.80;99.90;;;;;;4915841;29;20204;-74
2021/12/20 07:50:07;;;;;;;27.97;14.70;;;3.90;99.90;;;;;;4915723;29;20435;-74
2021/12/20 07:52:32;;;;;;;32.67;15.33;;;3.90;99.90;;;;;;4914351;29;20200;-73
2021/12/20 07:54:59;;;;;;;27.80;16.20;;;3.90;99.90;;;;;;4915586;29;20432;-75
2021/12/20 07:57:26;;;;;;;31.80;16.90;;;4.00;99.90;;;;;;4915697;29;20192;-74
2021/12/20 07:59:51;;;;;;;30.80;15.80;;;3.90;99.90;;;;;;4915386;29;20526;-75
2021/12/20 08:02:17;;;;;;;30.63;14.83;;;4.00;99.90;;;;;;4915405;29;20534;-74
2021/12/20 08:04:48;;;;;;;29.40;15.63;;;4.00;99.90;;;;;;4915467;29;20206;-74
2021/12/20 08:07:14;;;;;;;31.13;15.13;;;4.10;99.90;;;;;;4915453;29;20198;-75
2021/12/20 08:09:40;;;;;;;32.60;15.10;;;4.10;99.90;;;;;;4915540;29;20505;-74
2021/12/20 08:12:06;;;;;;;32.40;14.40;;;4.10;99.90;;;;;;4915298;29;20199;-74
2021/12/20 08:14:32;;;;;;;32.27;15.30;;;4.10;99.90;;;;;;4915154;29;20207;-74
2021/12/20 08:16:57;;;;;;;31.53;16.20;;;4.10;99.90;;;;;;4915565;29;20937;-74
2021/12/20 08:19:23;;;;;;;37.10;16.50;;;4.10;99.90;;;;;;4915424;29;20558;-75
2021/12/20 08:21:48;;;;;;;30.27;14.43;;;4.20;99.90;;;;;;4915321;29;20286;-74
2021/12/20 08:24:14;;;;;;;29.80;15.50;;;4.20;99.90;;;;;;4915111;29;20179;-73
2021/12/20 08:26:39;;;;;;;29.27;14.63;;;4.20;99.90;;;;;;4915303;29;20573;-74
2021/12/20 08:29:05;;;;;;;24.20;13.60;;;4.20;99.90;;;;;;4915467;29;20184;-74
2021/12/20 08:31:31;;;;;;;30.10;15.00;;;4.20;99.90;;;;;;4915021;29;20648;-73
2021/12/20 08:33:56;;;;;;;25.67;13.90;;;4.20;99.90;;;;;;4911628;29;20609;-74
2021/12/20 08:36:22;;;;;;;29.57;14.97;;;4.20;99.90;;;;;;4896088;29;20266;-74
2021/12/20 08:38:47;;;;;;;30.77;16.10;;;4.20;99.90;;;;;;4894531;29;20279;-74
2021/12/20 08:41:13;;;;;;;28.30;14.90;;;4.20;99.90;;;;;;4895898;29;20236;-75
2021/12/20 08:43:40;;;;;;;29.60;15.00;;;4.30;99.90;;;;;;4896504;29;20183;-74
2021/12/20 08:46:06;;;;;;;34.50;14.90;;;4.30;99.90;;;;;;4895910;29;20906;-75
2021/12/20 08:48:33;;;;;;;27.37;15.70;;;4.30;99.90;;;;;;4896164;29;20408;-74
2021/12/20 08:51:01;;;;;;;29.33;15.77;;;4.30;99.90;;;;;;4893646;29;20449;-74
2021/12/20 08:53:26;;;;;;;27.13;15.20;;;4.30;99.90;;;;;;4895017;29;20417;-74
2021/12/20 08:55:52;;;;;;;30.70;14.93;;;4.40;99.90;;;;;;4895048;29;20398;-74
2021/12/20 08:58:17;;;;;;;26.07;15.50;;;4.40;99.90;;;;;;4894426;29;20240;-75
2021/12/20 09:00:43;;;;;;;28.10;15.50;;;4.50;99.90;;;;;;4893889;29;20681;-75
2021/12/20 09:03:08;;;;;;;26.23;14.40;;;4.50;99.90;;;;;;4893473;29;20217;-74
2021/12/20 09:05:35;;;;;;;31.87;15.03;;;4.60;99.90;;;;;;4894266;29;20189;-74
2021/12/20 09:08:03;;;;;;;23.83;14.20;;;4.60;99.90;;;;;;4893104;29;20231;-74
2021/12/20 09:10:32;;;;;;;33.43;15.80;;;4.70;99.90;;;;;;4895874;29;20407;-72
2021/12/20 09:12:58;;;;;;;31.73;16.17;;;4.70;99.90;;;;;;4897485;29;20472;-74
2021/12/20 09:15:23;;;;;;;33.27;16.27;;;4.80;99.90;;;;;;4899804;29;20733;-74
2021/12/20 09:17:52;;;;;;;31.20;16.30;;;4.80;99.90;;;;;;4900113;29;20421;-74
2021/12/20 09:20:20;;;;;;;28.60;15.77;;;4.70;99.90;;;;;;4900341;29;20642;-74
2021/12/20 09:22:50;;;;;;;32.20;15.73;;;4.80;99.90;;;;;;4899967;29;20454;-74
2021/12/20 09:25:18;;;;;;;38.07;17.00;;;4.70;99.90;;;;;;4900057;29;20482;-74
2021/12/20 09:27:44;;;;;;;27.30;15.30;;;4.80;99.90;;;;;;4899563;29;20986;-74
2021/12/20 09:30:10;;;;;;;33.13;16.43;;;4.80;99.90;;;;;;4899340;29;20393;-74
2021/12/20 09:32:36;;;;;;;34.97;17.17;;;4.80;99.90;;;;;;4899214;29;20453;-74
2021/12/20 09:35:01;;;;;;;38.47;17.23;;;4.80;99.90;;;;;;4897756;29;20433;-75
2021/12/20 09:37:27;;;;;;;38.43;18.70;;;4.90;99.90;;;;;;4897968;29;20188;-75
2021/12/20 09:39:55;;;;;;;32.47;16.07;;;4.90;99.90;;;;;;4899204;29;20182;-74
2021/12/20 09:42:22;;;;;;;31.63;18.27;;;4.90;99.90;;;;;;4898988;29;20202;-75
2021/12/20 09:44:48;;;;;;;36.57;18.40;;;4.80;99.90;;;;;;4899170;29;20426;-75
2021/12/20 09:47:14;;;;;;;41.23;17.73;;;4.90;99.90;;;;;;4898904;29;20564;-74
2021/12/20 09:49:40;;;;;;;32.87;17.20;;;4.90;99.90;;;;;;4899185;29;20512;-74
2021/12/20 09:52:06;;;;;;;35.43;18.40;;;4.90;99.90;;;;;;4898577;29;20438;-75
2021/12/20 09:54:31;;;;;;;35.90;18.63;;;4.90;99.90;;;;;;4897206;29;20212;-74
2021/12/20 09:56:59;;;;;;;36.63;18.90;;;5.00;99.90;;;;;;4898817;29;20464;-74
2021/12/20 09:59:27;;;;;;;40.67;17.63;;;5.00;99.90;;;;;;4897519;29;20291;-75
2021/12/20 10:01:53;;;;;;;40.23;18.10;;;5.00;99.90;;;;;;4898592;29;20452;-74
2021/12/20 10:04:21;;;;;;;36.20;18.53;;;5.10;99.90;;;;;;4897760;29;21001;-75
2021/12/20 10:06:56;;;;;;;42.43;19.97;;;5.20;99.90;;;;;;4897798;29;20455;-73
2021/12/20 10:09:27;;;;;;;39.60;17.70;;;5.20;99.90;;;;;;4898729;29;20954;-74
2021/12/20 10:12:17;;;;;;;40.27;16.90;;;5.20;99.90;;;;;;4896150;29;20843;-73
2021/12/20 10:14:57;;;;;;;36.47;18.30;;;5.20;99.90;;;;;;4898300;29;20410;-73
2021/12/20 10:17:29;;;;;;;32.20;17.40;;;5.20;99.90;;;;;;4898410;29;20421;-74
2021/12/20 10:19:55;;;;;;;40.37;18.53;;;5.20;99.90;;;;;;4897781;29;20425;-73
2021/12/20 10:22:29;;;;;;;43.63;19.80;;;5.20;99.90;;;;;;4897454;29;20415;-73
2021/12/20 10:25:02;;;;;;;31.70;16.87;;;5.20;99.90;;;;;;4898171;29;20506;-73
2021/12/20 10:27:35;;;;;;;38.90;18.77;;;5.20;99.90;;;;;;4898238;29;20473;-73
2021/12/20 10:30:28;;;;;;;36.90;17.93;;;5.20;99.90;;;;;;4898234;29;20425;-74
2021/12/20 10:32:55;;;;;;;34.73;17.63;;;5.30;99.90;;;;;;4897615;29;20430;-73
2021/12/20 10:35:33;;;;;;;34.53;19.20;;;5.30;99.90;;;;;;4897981;29;20509;-74
2021/12/20 10:38:02;;;;;;;41.27;18.67;;;5.40;99.90;;;;;;4898116;29;20430;-74
2021/12/20 10:40:28;;;;;;;34.57;17.90;;;5.50;99.90;;;;;;4897759;29;20917;-74
2021/12/20 10:42:56;;;;;;;32.60;17.53;;;5.50;99.90;;;;;;4897354;29;20457;-74
2021/12/20 10:45:22;;;;;;;33.50;16.33;;;5.60;99.90;;;;;;4897711;29;20529;-74
2021/12/20 10:47:50;;;;;;;32.73;16.50;;;5.70;99.90;;;;;;4897902;29;20485;-74
2021/12/20 10:50:25;;;;;;;30.63;15.90;;;5.80;99.90;;;;;;4897664;29;20429;-75
2021/12/20 10:52:52;;;;;;;36.70;15.60;;;5.70;99.90;;;;;;4897097;29;20954;-74
2021/12/20 10:55:41;;;;;;;26.63;14.03;;;5.80;99.90;;;;;;4897757;29;20885;-75
2021/12/20 10:58:31;;;;;;;32.90;16.37;;;5.80;99.90;;;;;;4896615;29;20440;-74
2021/12/20 11:02:23;;;;;;;39.40;16.17;;;5.60;99.90;;;;;;4896296;29;20991;-74
2021/12/20 11:04:40;;;;;;;32.33;15.93;;;5.60;99.90;;;;;;4897292;29;20434;-75
2021/12/20 11:09:45;;;;;;;25.53;13.13;;;5.80;99.90;;;;;;4897706;29;20432;-73
2021/12/20 11:12:15;;;;;;;25.23;14.30;;;5.90;99.90;;;;;;4896912;29;20443;-73
2021/12/20 11:14:49;;;;;;;24.50;13.33;;;6.10;99.90;;;;;;4897553;29;20415;-74
2021/12/20 11:17:18;;;;;;;23.47;12.93;;;6.20;99.90;;;;;;4897346;29;20446;-75
2021/12/20 11:19:48;;;;;;;26.40;12.20;;;6.10;99.90;;;;;;4897409;29;20510;-74
2021/12/20 11:22:22;;;;;;;23.90;13.23;;;6.10;99.90;;;;;;4896791;29;20453;-74
2021/12/20 11:24:53;;;;;;;26.70;14.07;;;6.10;99.90;;;;;;4897363;29;20516;-74
2021/12/20 11:27:35;;;;;;;26.67;13.63;;;6.00;99.90;;;;;;4897023;29;20477;-73
2021/12/20 11:30:08;;;;;;;22.70;12.13;;;6.00;99.90;;;;;;4897212;29;20422;-74
2021/12/20 11:32:34;;;;;;;20.77;11.30;;;5.90;99.90;;;;;;4896588;29;20471;-73
2021/12/20 11:35:00;;;;;;;23.90;13.37;;;5.80;99.90;;;;;;4896117;29;20427;-74
2021/12/20 11:37:28;;;;;;;25.83;12.70;;;5.80;99.90;;;;;;4897062;29;20974;-74
2021/12/20 11:39:56;;;;;;;19.23;11.10;;;5.70;99.90;;;;;;4896984;29;20195;-75
2021/12/20 11:42:23;;;;;;;23.70;13.50;;;5.70;99.90;;;;;;4896544;29;20478;-74
2021/12/20 11:44:54;;;;;;;19.63;11.00;;;5.60;99.90;;;;;;4896562;29;20406;-73
2021/12/20 11:47:35;;;;;;;21.33;12.63;;;5.60;99.90;;;;;;4896725;29;20462;-74
2021/12/20 11:50:00;;;;;;;20.60;12.10;;;5.60;99.90;;;;;;4896611;29;20425;-73
2021/12/20 11:52:31;;;;;;;27.70;13.03;;;5.60;99.90;;;;;;4894916;29;20436;-74
2021/12/20 11:54:58;;;;;;;32.33;12.20;;;5.50;99.90;;;;;;4895641;29;20178;-73
2021/12/20 11:57:39;;;;;;;24.53;14.63;;;5.40;99.90;;;;;;4895469;29;20429;-73
2021/12/20 12:00:05;;;;;;;26.17;14.13;;;5.40;99.90;;;;;;4895430;29;20434;-73
2021/12/20 12:02:33;;;;;;;30.90;16.37;;;5.30;99.90;;;;;;4894958;29;20461;-75
2021/12/20 12:05:04;;;;;;;24.37;14.47;;;5.30;99.90;;;;;;4896466;29;20560;-74
2021/12/20 12:07:35;;;;;;;23.57;12.93;;;5.20;99.90;;;;;;4896443;29;20525;-74
2021/12/20 12:10:12;;;;;;;27.80;13.50;;;5.10;99.90;;;;;;4895426;29;20435;-73
2021/12/20 12:12:42;;;;;;;19.70;12.87;;;5.00;99.90;;;;;;4896689;29;20437;-74
2021/12/20 12:15:19;;;;;;;27.10;13.93;;;5.00;99.90;;;;;;4896449;29;20425;-73
2021/12/20 12:18:02;;;;;;;25.50;13.40;;;5.00;99.90;;;;;;4896790;29;20400;-73
2021/12/20 12:20:38;;;;;;;24.90;12.33;;;5.00;99.90;;;;;;4896712;29;20419;-74
2021/12/20 12:23:12;;;;;;;21.00;13.30;;;5.00;99.90;;;;;;4895813;29;20460;-75
2021/12/20 12:25:44;;;;;;;21.20;12.80;;;5.20;99.90;;;;;;4896543;29;20537;-74
2021/12/20 12:28:12;;;;;;;20.17;11.93;;;5.30;99.90;;;;;;4896388;29;20456;-74
2021/12/20 12:30:39;;;;;;;22.37;11.93;;;5.50;99.90;;;;;;4896295;29;20501;-73
2021/12/20 12:33:14;;;;;;;24.83;11.60;;;5.60;99.90;;;;;;4896880;29;20494;-74
2021/12/20 12:35:39;;;;;;;21.30;10.80;;;5.80;99.90;;;;;;4896731;29;20413;-74
2021/12/20 12:38:35;;;;;;;24.60;11.10;;;5.90;99.90;;;;;;4894641;29;20426;-72
2021/12/20 12:41:07;;;;;;;18.00;10.30;;;5.90;99.90;;;;;;4896377;29;20622;-74
2021/12/20 12:43:58;;;;;;;20.47;9.90;;;5.80;99.90;;;;;;4896028;29;20411;-74
2021/12/20 12:46:35;;;;;;;14.30;8.40;;;5.90;99.90;;;;;;4898591;29;20555;-74
2021/12/20 12:49:21;;;;;;;17.80;9.53;;;5.80;99.90;;;;;;4898341;29;20430;-75
2021/12/20 12:51:48;;;;;;;16.20;9.60;;;6.10;99.90;;;;;;4899790;29;20578;-78
2021/12/20 12:54:58;;;;;;;24.47;10.63;;;6.10;99.90;;;;;;4898876;29;20777;-73
2021/12/20 12:57:24;;;;;;;18.87;10.43;;;6.00;99.90;;;;;;4872441;29;20421;-75
2021/12/20 12:59:50;;;;;;;20.73;10.90;;;6.00;99.90;;;;;;4897228;29;20434;-74
2021/12/20 13:02:20;;;;;;;21.97;9.67;;;6.00;99.90;;;;;;4903612;29;20525;-74
2021/12/20 13:05:00;;;;;;;15.40;9.50;;;5.90;99.90;;;;;;4905678;29;21610;-74
2021/12/20 13:07:29;;;;;;;16.83;8.80;;;5.90;99.90;;;;;;4913120;29;20470;-74
2021/12/20 13:09:58;;;;;;;19.30;9.63;;;5.90;99.90;;;;;;4899491;29;20476;-74
2021/12/20 13:12:37;;;;;;;23.43;11.30;;;5.80;99.90;;;;;;4909890;29;20540;-73
2021/12/20 13:15:10;;;;;;;20.80;10.00;;;5.80;99.90;;;;;;4906691;29;20445;-74
2021/12/20 13:17:45;;;;;;;19.40;9.50;;;5.60;99.90;;;;;;4901779;29;20483;-73
2021/12/20 13:20:21;;;;;;;21.57;9.43;;;5.60;99.90;;;;;;4910148;29;20427;-74
2021/12/20 13:23:09;;;;;;;17.43;8.43;;;5.60;99.90;;;;;;4906911;29;20452;-72
2021/12/20 13:25:39;;;;;;;16.63;8.07;;;5.50;99.90;;;;;;4906723;29;20434;-75
2021/12/20 13:28:08;;;;;;;23.63;8.63;;;5.50;99.90;;;;;;4903895;29;20500;-74
2021/12/20 13:30:51;;;;;;;15.60;8.10;;;5.60;99.90;;;;;;4900926;29;20429;-72
2021/12/20 13:33:19;;;;;;;16.60;7.40;;;5.60;99.90;;;;;;4887409;29;20776;-74
2021/12/20 13:35:45;;;;;;;18.27;8.07;;;5.50;99.90;;;;;;4911412;29;20390;-73
2021/12/20 13:38:19;;;;;;;23.30;9.53;;;5.50;99.90;;;;;;4905763;29;20452;-74
2021/12/20 13:40:49;;;;;;;19.37;8.57;;;5.60;99.90;;;;;;4907582;29;20845;-74
2021/12/20 13:43:19;;;;;;;21.47;9.50;;;5.70;99.90;;;;;;4903343;29;20437;-73
2021/12/20 13:46:13;;;;;;;15.40;7.93;;;5.80;99.90;;;;;;4893634;29;20410;-75
2021/12/20 13:48:47;;;;;;;17.70;8.80;;;5.90;99.90;;;;;;4890965;29;20430;-74
2021/12/20 13:51:14;;;;;;;15.33;8.80;;;6.00;99.90;;;;;;4907399;29;20524;-73
2021/12/20 13:53:40;;;;;;;15.83;8.03;;;6.10;99.90;;;;;;4915973;29;20980;-73
2021/12/20 13:56:05;;;;;;;20.43;8.27;;;6.20;99.90;;;;;;4905130;29;20459;-75
2021/12/20 13:58:31;;;;;;;15.07;8.00;;;6.40;99.90;;;;;;4897101;29;20201;-76
2021/12/20 14:00:58;;;;;;;15.03;8.20;;;6.50;99.90;;;;;;4899855;29;20202;-73
2021/12/20 14:03:25;;;;;;;18.30;8.60;;;6.60;99.90;;;;;;4913126;29;20555;-74
2021/12/20 14:05:51;;;;;;;13.17;7.20;;;6.60;99.90;;;;;;4917272;29;20829;-74
2021/12/20 14:08:23;;;;;;;9.10;5.87;;;6.50;99.90;;;;;;4916302;29;20517;-73
2021/12/20 14:10:50;;;;;;;11.97;5.40;;;6.40;99.90;;;;;;4917466;29;20752;-73
2021/12/20 14:13:29;;;;;;;11.47;5.63;;;6.30;99.90;;;;;;4917194;29;20920;-74
2021/12/20 14:16:00;;;;;;;9.10;4.10;;;6.20;99.90;;;;;;4917202;29;20419;-74
2021/12/20 14:18:34;;;;;;;8.80;3.90;;;6.10;99.90;;;;;;4901170;29;20426;-74
2021/12/20 14:21:05;;;;;;;11.63;4.87;;;6.10;99.90;;;;;;4898502;29;21137;-74
2021/12/20 14:23:39;;;;;;;11.67;4.50;;;6.00;99.90;;;;;;4897853;29;20418;-75
2021/12/20 14:26:25;;;;;;;6.83;4.70;;;6.00;99.90;;;;;;4898288;29;20388;-75
2021/12/20 14:29:05;;;;;;;8.03;5.13;;;5.90;99.90;;;;;;4898468;29;21056;-73
2021/12/20 14:31:38;;;;;;;12.43;5.03;;;5.90;99.90;;;;;;4897715;29;20822;-75
2021/12/20 14:34:06;;;;;;;10.63;5.20;;;5.90;99.90;;;;;;4898130;29;20822;-75
2021/12/20 14:36:40;;;;;;;10.30;4.33;;;5.80;99.90;;;;;;4897966;29;20453;-74
2021/12/20 14:39:18;;;;;;;18.70;6.37;;;5.80;99.90;;;;;;4898217;29;20797;-75
2021/12/20 14:41:49;;;;;;;12.33;5.50;;;5.80;99.90;;;;;;4897712;29;20431;-75
2021/12/20 14:44:30;;;;;;;14.57;6.20;;;5.70;99.90;;;;;;4897850;29;20447;-75
2021/12/20 14:47:05;;;;;;;16.63;6.20;;;5.70;99.90;;;;;;4897724;29;20466;-75
2021/12/20 14:49:48;;;;;;;6.63;4.60;;;5.70;99.90;;;;;;4897885;29;20455;-75
2021/12/20 14:52:19;;;;;;;11.60;4.50;;;5.60;99.90;;;;;;4897726;29;20434;-75
2021/12/20 14:54:51;;;;;;;11.00;4.90;;;5.60;99.90;;;;;;4896372;29;20412;-75
2021/12/20 14:57:20;;;;;;;14.90;5.13;;;5.60;99.90;;;;;;4897478;29;20424;-75
2021/12/20 14:59:51;;;;;;;12.00;5.50;;;5.50;99.90;;;;;;4897712;29;20418;-73
2021/12/20 15:02:23;;;;;;;11.90;5.20;;;5.40;99.90;;;;;;4897239;29;20927;-74
2021/12/20 15:04:49;;;;;;;11.50;4.63;;;5.30;99.90;;;;;;4897619;29;20485;-75
2021/12/20 15:07:14;;;;;;;13.87;5.43;;;5.20;99.90;;;;;;4897342;29;20967;-75
2021/12/20 15:09:40;;;;;;;12.00;5.77;;;5.10;99.90;;;;;;4896573;29;20641;-75
2021/12/20 15:12:06;;;;;;;11.33;5.00;;;5.10;99.90;;;;;;4897021;29;20205;-75
2021/12/20 15:14:31;;;;;;;10.13;4.60;;;5.00;99.90;;;;;;4897105;29;20184;-76
2021/12/20 15:16:57;;;;;;;11.83;5.50;;;4.90;99.90;;;;;;4895844;29;20947;-74
2021/12/20 15:19:23;;;;;;;14.23;5.37;;;4.80;99.90;;;;;;4897361;29;20176;-75
2021/12/20 15:21:50;;;;;;;13.73;6.83;;;4.70;99.90;;;;;;4897064;29;20233;-74
2021/12/20 15:24:16;;;;;;;10.73;5.60;;;4.60;99.90;;;;;;4896961;29;20517;-75
2021/12/20 15:26:42;;;;;;;8.87;5.00;;;4.50;99.90;;;;;;4897088;29;20535;-75
2021/12/20 15:29:07;;;;;;;15.67;4.60;;;4.50;99.90;;;;;;4897212;29;20186;-75
2021/12/20 15:31:35;;;;;;;12.93;4.97;;;4.30;99.90;;;;;;4896727;29;20360;-76
2021/12/20 15:34:01;;;;;;;15.70;5.00;;;4.20;99.90;;;;;;4896996;29;20183;-76
2021/12/20 15:36:27;;;;;;;14.47;8.43;;;4.00;99.90;;;;;;4896877;29;20915;-76
2021/12/20 15:38:54;;;;;;;9.70;5.77;;;3.90;99.90;;;;;;4896872;29;20432;-75
2021/12/20 15:41:20;;;;;;;9.40;6.20;;;3.80;99.90;;;;;;4896570;29;20585;-75
2021/12/20 15:43:46;;;;;;;13.43;5.83;;;3.70;99.90;;;;;;4896844;29;20448;-75
2021/12/20 15:46:11;;;;;;;11.37;6.37;;;3.60;99.90;;;;;;4896961;29;20970;-75
2021/12/20 15:48:37;;;;;;;10.23;5.10;;;3.50;99.90;;;;;;4896650;29;20180;-75
2021/12/20 15:51:02;;;;;;;10.33;5.17;;;3.30;99.90;;;;;;4897822;29;20322;-80
2021/12/20 15:53:32;;;;;;;11.97;5.10;;;3.20;99.90;;;;;;4898009;29;20182;-77
2021/12/20 15:56:00;;;;;;;16.33;5.27;;;3.20;99.90;;;;;;4897259;29;20175;-77
2021/12/20 15:58:25;;;;;;;18.87;4.77;;;3.10;99.90;;;;;;4896378;29;20477;-78
2021/12/20 16:00:51;;;;;;;14.90;5.53;;;3.00;99.90;;;;;;4897863;29;20448;-77
2021/12/20 16:03:17;;;;;;;16.93;7.80;;;2.80;99.90;;;;;;4897141;29;20198;-78
2021/12/20 16:05:43;;;;;;;21.63;10.97;;;2.80;99.90;;;;;;4896233;29;20180;-76
2021/12/20 16:08:09;;;;;;;28.13;12.10;;;2.60;99.90;;;;;;4896738;29;20475;-77
2021/12/20 16:10:34;;;;;;;15.33;8.70;;;2.50;99.90;;;;;;4896483;29;20424;-76
2021/12/20 16:13:00;;;;;;;16.53;7.70;;;2.40;99.90;;;;;;4896241;29;20178;-77
2021/12/20 16:15:25;;;;;;;8.13;4.73;;;2.30;99.90;;;;;;4896677;29;20191;-77
2021/12/20 16:17:53;;;;;;;17.13;5.67;;;2.30;99.90;;;;;;4895458;29;20202;-77
2021/12/20 16:20:20;;;;;;;9.40;4.47;;;2.20;99.90;;;;;;4896208;29;20206;-77
2021/12/20 16:22:46;;;;;;;12.30;4.07;;;2.10;99.90;;;;;;4896126;29;20446;-76
2021/12/20 16:25:14;;;;;;;16.17;5.97;;;1.90;99.90;;;;;;4895583;29;20960;-78
2021/12/20 16:27:42;;;;;;;7.73;3.87;;;1.90;99.90;;;;;;4896332;29;20474;-77
2021/12/20 16:30:13;;;;;;;13.03;4.73;;;1.80;99.90;;;;;;4897556;29;20583;-78
2021/12/20 16:32:39;;;;;;;19.23;5.63;;;1.70;99.90;;;;;;4881492;29;20441;-78
2021/12/20 16:35:08;;;;;;;15.73;5.37;;;1.70;99.90;;;;;;4877515;29;20435;-77
2021/12/20 16:37:34;;;;;;;16.43;4.73;;;1.60;99.90;;;;;;4877559;29;20189;-78
2021/12/20 16:39:59;;;;;;;10.10;5.00;;;1.50;99.90;;;;;;4877074;29;20407;-78
2021/12/20 16:42:25;;;;;;;6.40;4.43;;;1.40;99.90;;;;;;4894357;29;20451;-79
2021/12/20 16:44:52;;;;;;;14.60;5.70;;;1.40;99.90;;;;;;4896264;29;20195;-78
2021/12/20 16:47:21;;;;;;;15.87;4.67;;;1.30;99.90;;;;;;4894643;29;20209;-77
2021/12/20 16:49:52;;;;;;;17.40;5.27;;;1.20;99.90;;;;;;4896361;29;20752;-77
2021/12/20 16:52:18;;;;;;;9.83;5.00;;;1.20;99.90;;;;;;4889507;29;20443;-77
2021/12/20 16:54:46;;;;;;;12.40;4.90;;;1.10;99.90;;;;;;4884126;29;20517;-78
2021/12/20 16:57:13;;;;;;;13.87;5.40;;;1.10;99.90;;;;;;4876378;29;20423;-77
2021/12/20 16:59:39;;;;;;;14.30;5.20;;;1.00;99.90;;;;;;4877276;29;20611;-78
2021/12/20 17:02:06;;;;;;;11.43;4.83;;;0.90;99.90;;;;;;4877173;29;20534;-77
2021/12/20 17:04:43;;;;;;;13.87;4.67;;;0.90;99.90;;;;;;4877417;29;20435;-77
2021/12/20 17:07:09;;;;;;;16.50;5.20;;;0.80;99.90;;;;;;4877433;29;20510;-77
2021/12/20 17:09:35;;;;;;;6.57;4.23;;;0.70;99.90;;;;;;4876181;29;20435;-78
2021/12/20 17:12:00;;;;;;;11.50;4.20;;;0.70;99.90;;;;;;4877040;29;20441;-77
2021/12/20 17:14:26;;;;;;;12.10;5.13;;;0.70;99.90;;;;;;4876013;29;21005;-77
2021/12/20 17:16:51;;;;;;;8.60;4.77;;;0.60;99.90;;;;;;4877687;29;20723;-77
2021/12/20 17:19:17;;;;;;;16.93;5.40;;;0.60;99.90;;;;;;4878421;29;20191;-77
2021/12/20 17:21:43;;;;;;;8.63;5.07;;;0.60;99.90;;;;;;4879374;29;20251;-77
2021/12/20 17:24:10;;;;;;;15.90;5.90;;;0.50;99.90;;;;;;4876863;29;20195;-77
2021/12/20 17:26:35;;;;;;;14.97;5.47;;;0.40;99.90;;;;;;4876355;29;20220;-77